createdAt,value
2023-04-05T00:02:18.837Z,6.03
2023-04-05T00:04:52.167Z,5.70
2023-04-05T00:07:21.441Z,5.70
2023-04-05T00:09:48.825Z,6.07
2023-04-05T00:14:42.089Z,5.78
2023-04-05T00:17:10.891Z,6.03
2023-04-05T00:19:39.352Z,5.72
2023-04-05T00:22:06.101Z,5.90
2023-04-05T00:24:34.050Z,5.43
2023-04-05T00:27:01.350Z,5.50
2023-04-05T00:31:54.712Z,5.43
2023-04-05T00:34:21.261Z,5.72
2023-04-05T00:36:47.860Z,5.78
2023-04-05T00:39:14.399Z,6.07
2023-04-05T00:41:40.939Z,4.65
2023-04-05T00:44:07.839Z,5.60
2023-04-05T00:46:36.601Z,5.85
2023-04-05T00:49:04.886Z,6.00
2023-04-05T00:51:34.940Z,5.40
2023-04-05T00:54:02.702Z,5.43
2023-04-05T00:56:30.284Z,5.18
2023-04-05T00:58:56.876Z,5.25
2023-04-05T01:01:26.384Z,5.80
2023-04-05T01:04:03.138Z,5.03
2023-04-05T01:06:58.130Z,5.50
2023-04-05T01:09:38.187Z,5.00
2023-04-05T01:12:10.318Z,5.15
2023-04-05T01:14:51.513Z,5.30
2023-04-05T01:17:23.857Z,4.97
2023-04-05T01:19:58.950Z,5.20
2023-04-05T01:22:52.032Z,4.93
2023-04-05T01:25:34.867Z,4.65
2023-04-05T01:28:04.093Z,5.70
2023-04-05T01:30:38.355Z,5.13
2023-04-05T01:33:17.109Z,4.93
2023-04-05T01:35:59.444Z,5.00
2023-04-05T01:38:27.933Z,4.78
2023-04-05T01:40:55.023Z,5.35
2023-04-05T01:43:21.787Z,5.22
2023-04-05T01:45:48.571Z,5.22
2023-04-05T01:48:16.388Z,4.85
2023-04-05T01:50:43.616Z,5.22
2023-04-05T01:53:10.436Z,5.07
2023-04-05T01:55:37.088Z,5.72
2023-04-05T01:58:03.842Z,5.40
2023-04-05T02:00:30.834Z,5.68
2023-04-05T02:02:57.492Z,5.35
2023-04-05T02:05:24.077Z,4.20
2023-04-05T02:07:50.674Z,5.53
2023-04-05T02:10:18.612Z,3.90
2023-04-05T02:12:45.397Z,5.63
2023-04-05T02:15:12.361Z,5.38
2023-04-05T02:17:40.017Z,5.57
2023-04-05T02:20:12.689Z,5.20
2023-04-05T02:22:40.107Z,5.28
2023-04-05T02:25:09.153Z,5.50
2023-04-05T02:27:35.802Z,5.68
2023-04-05T02:30:02.823Z,4.18
2023-04-05T02:32:29.417Z,5.88
2023-04-05T02:34:56.116Z,5.55
2023-04-05T02:37:22.800Z,5.53
2023-04-05T02:39:49.541Z,5.22
2023-04-05T02:42:16.140Z,5.47
2023-04-05T02:44:42.845Z,5.28
2023-04-05T02:47:09.452Z,3.97
2023-04-05T02:49:36.137Z,5.07
2023-04-05T02:52:02.729Z,5.15
2023-04-05T02:54:29.285Z,5.70
2023-04-05T02:56:57.836Z,5.35
2023-04-05T02:59:25.033Z,5.07
2023-04-05T03:01:51.743Z,5.28
2023-04-05T03:04:18.921Z,5.20
2023-04-05T03:06:48.768Z,5.00
2023-04-05T03:09:15.584Z,4.85
2023-04-05T03:11:42.218Z,5.53
2023-04-05T03:14:08.883Z,5.55
2023-04-05T03:16:36.596Z,5.13
2023-04-05T03:19:06.361Z,5.53
2023-04-05T03:21:33.955Z,5.03
2023-04-05T03:24:00.550Z,5.05
2023-04-05T03:26:27.648Z,4.68
2023-04-05T03:28:54.185Z,5.97
2023-04-05T03:31:20.900Z,5.55
2023-04-05T03:33:47.572Z,5.20
2023-04-05T03:36:16.772Z,5.30
2023-04-05T03:38:45.894Z,5.07
2023-04-05T03:41:12.563Z,5.88
2023-04-05T03:43:39.161Z,4.82
2023-04-05T03:46:05.899Z,4.65
2023-04-05T03:48:32.496Z,5.07
2023-04-05T03:50:59.137Z,5.03
2023-04-05T03:53:26.490Z,5.05
2023-04-05T03:58:21.996Z,4.45
2023-04-05T04:00:48.884Z,4.70
2023-04-05T04:03:15.635Z,4.53
2023-04-05T04:05:42.482Z,3.75
2023-04-05T04:08:09.885Z,5.05
2023-04-05T04:10:36.869Z,5.32
2023-04-05T04:13:03.466Z,4.95
2023-04-05T04:15:29.994Z,3.50
2023-04-05T04:17:56.965Z,4.88
2023-04-05T04:20:23.574Z,4.30
2023-04-05T04:22:50.172Z,4.43
2023-04-05T04:25:18.914Z,4.80
2023-04-05T04:27:46.752Z,4.72
2023-04-05T04:30:15.041Z,4.40
2023-04-05T04:32:52.772Z,4.13
2023-04-05T04:35:25.190Z,4.50
2023-04-05T04:37:59.758Z,4.00
2023-04-05T04:40:39.584Z,4.78
2023-04-05T04:43:14.577Z,5.60
2023-04-05T04:45:41.830Z,5.38
2023-04-05T04:50:35.349Z,4.18
2023-04-05T04:53:02.172Z,4.68
2023-04-05T04:55:29.241Z,4.13
2023-04-05T04:57:56.652Z,4.10
2023-04-05T05:00:24.403Z,4.40
2023-04-05T05:02:53.117Z,5.15
2023-04-05T05:05:23.598Z,5.55
2023-04-05T05:07:52.822Z,4.32
2023-04-05T05:10:20.165Z,4.50
2023-04-05T05:12:48.755Z,4.22
2023-04-05T05:15:15.408Z,4.40
2023-04-05T05:17:42.216Z,3.88
2023-04-05T05:20:11.357Z,3.63
2023-04-05T05:22:39.112Z,3.70
2023-04-05T05:25:06.964Z,3.95
2023-04-05T05:27:36.417Z,3.83
2023-04-05T05:30:03.932Z,4.20
2023-04-05T05:32:30.469Z,3.92
2023-04-05T05:34:57.158Z,3.92
2023-04-05T05:37:31.213Z,4.03
2023-04-05T05:39:57.773Z,4.30
2023-04-05T05:42:24.350Z,3.70
2023-04-05T05:44:50.930Z,4.10
2023-04-05T05:47:17.533Z,4.20
2023-04-05T05:49:44.124Z,4.18
2023-04-05T05:52:10.788Z,4.80
2023-04-05T05:54:37.306Z,4.30
2023-04-05T05:57:03.889Z,4.15
2023-04-05T05:59:30.724Z,4.03
2023-04-05T06:01:57.354Z,4.03
2023-04-05T06:04:24.530Z,3.47
2023-04-05T06:09:18.198Z,3.25
2023-04-05T06:11:55.911Z,3.90
2023-04-05T06:14:25.164Z,3.53
2023-04-05T06:16:52.335Z,3.30
2023-04-05T06:19:19.188Z,3.40
2023-04-05T06:21:45.951Z,3.25
2023-04-05T06:24:12.593Z,3.30
2023-04-05T06:26:39.173Z,2.70
2023-04-05T06:29:06.260Z,3.35
2023-04-05T06:31:35.859Z,3.00
2023-04-05T06:34:03.120Z,3.67
2023-04-05T06:36:34.609Z,3.83
2023-04-05T06:39:01.588Z,3.45
2023-04-05T06:41:28.236Z,3.70
2023-04-05T06:43:56.225Z,3.60
2023-04-05T06:46:23.072Z,3.60
2023-04-05T06:48:50.373Z,2.88
2023-04-05T06:51:17.073Z,3.85
2023-04-05T06:53:43.969Z,3.05
2023-04-05T06:56:11.140Z,3.00
2023-04-05T06:58:38.326Z,3.25
2023-04-05T07:01:05.597Z,3.30
2023-04-05T07:08:28.510Z,3.30
2023-04-05T07:10:55.462Z,3.53
2023-04-05T07:13:23.575Z,3.47
2023-04-05T07:15:51.345Z,3.20
2023-04-05T07:18:19.296Z,2.90
2023-04-05T07:20:48.927Z,3.20
2023-04-05T07:23:15.490Z,2.90
2023-04-05T07:25:42.055Z,3.17
2023-04-05T07:28:08.716Z,3.42
2023-04-05T07:30:36.918Z,3.30
2023-04-05T07:33:03.757Z,3.17
2023-04-05T07:35:30.905Z,3.30
2023-04-05T07:37:57.567Z,2.65
2023-04-05T07:40:24.222Z,3.80
2023-04-05T07:42:50.855Z,3.30
2023-04-05T07:45:17.510Z,3.60
2023-04-05T07:47:44.361Z,3.05
2023-04-05T07:50:15.148Z,2.90
2023-04-05T07:52:42.784Z,3.17
2023-04-05T07:55:10.358Z,3.50
2023-04-05T07:57:37.632Z,3.53
2023-04-05T08:02:31.790Z,2.63
2023-04-05T08:04:58.546Z,3.92
2023-04-05T08:07:25.578Z,2.33
2023-04-05T08:09:53.702Z,3.65
2023-04-05T08:12:20.472Z,2.80
2023-04-05T08:14:47.025Z,3.70
2023-04-05T08:17:14.862Z,3.10
2023-04-05T08:19:41.385Z,3.38
2023-04-05T08:22:08.064Z,6.93
2023-04-05T08:24:34.777Z,5.05
2023-04-05T08:27:01.445Z,2.67
2023-04-05T08:29:28.028Z,3.70
2023-04-05T08:31:58.483Z,3.13
2023-04-05T08:34:25.204Z,5.68
2023-04-05T08:36:51.755Z,4.30
2023-04-05T08:39:18.759Z,4.23
2023-04-05T08:41:54.857Z,8.60
2023-04-05T08:44:23.044Z,3.03
2023-04-05T08:46:50.973Z,2.90
2023-04-05T08:49:17.682Z,3.10
2023-04-05T08:51:44.371Z,3.75
2023-04-05T08:54:11.604Z,4.20
2023-04-05T08:56:38.960Z,3.65
2023-04-05T09:01:37.325Z,2.63
2023-04-05T09:04:10.876Z,4.78
2023-04-05T09:06:37.681Z,3.13
2023-04-05T09:09:07.620Z,3.10
2023-04-05T09:11:35.633Z,3.17
2023-04-05T09:14:06.295Z,4.07
2023-04-05T09:16:38.855Z,2.88
2023-04-05T09:19:06.534Z,2.65
2023-04-05T09:22:01.926Z,2.20
2023-04-05T09:24:39.299Z,2.00
2023-04-05T09:27:18.996Z,2.42
2023-04-05T09:29:49.762Z,2.33
2023-04-05T09:32:19.253Z,2.30
2023-04-05T09:34:45.918Z,2.15
2023-04-05T09:37:20.411Z,2.30
2023-04-05T09:39:52.445Z,1.88
2023-04-05T09:42:23.112Z,2.15
2023-04-05T09:44:54.060Z,2.10
2023-04-05T09:47:22.645Z,2.28
2023-04-05T09:49:49.245Z,2.38
2023-04-05T09:52:19.492Z,2.37
2023-04-05T09:54:46.181Z,2.45
2023-04-05T09:57:12.999Z,2.60
2023-04-05T09:59:40.352Z,2.20
2023-04-05T10:04:45.382Z,2.60
2023-04-05T10:07:14.081Z,2.40
2023-04-05T10:09:42.026Z,2.30
2023-04-05T10:12:10.000Z,2.15
2023-04-05T10:14:37.348Z,2.75
2023-04-05T10:19:47.116Z,2.85
2023-04-05T10:22:18.344Z,2.35
2023-04-05T10:25:11.486Z,2.92
2023-04-05T10:27:45.086Z,2.75
2023-04-05T10:30:13.406Z,2.17
2023-04-05T10:32:59.023Z,2.47
2023-04-05T10:35:42.537Z,1.88
2023-04-05T10:38:27.007Z,2.50
2023-04-05T10:41:06.813Z,2.28
2023-04-05T10:43:35.637Z,2.53
2023-04-05T10:46:03.491Z,4.75
2023-04-05T10:48:58.243Z,2.60
2023-04-05T10:51:26.871Z,3.15
2023-04-05T10:53:54.794Z,2.70
2023-04-05T10:56:21.813Z,2.78
2023-04-05T10:58:50.646Z,4.38
2023-04-05T11:01:18.870Z,2.97
2023-04-05T11:03:49.480Z,3.50
2023-04-05T11:06:22.949Z,4.03
2023-04-05T11:08:53.573Z,4.10
2023-04-05T11:11:22.535Z,3.58
2023-04-05T11:13:51.658Z,3.08
2023-04-05T11:16:18.287Z,3.30
2023-04-05T11:18:47.331Z,2.90
2023-04-05T11:21:21.942Z,2.83
2023-04-05T11:24:09.633Z,2.65
2023-04-05T11:26:48.420Z,2.42
2023-04-05T11:29:17.810Z,2.45
2023-04-05T11:32:12.585Z,2.53
2023-04-05T11:34:42.543Z,2.40
2023-04-05T11:37:09.379Z,2.70
2023-04-05T11:39:38.238Z,2.40
2023-04-05T11:42:04.884Z,2.72
2023-04-05T11:44:47.238Z,2.60
2023-04-05T11:47:17.037Z,2.92
2023-04-05T11:49:43.806Z,3.63
2023-04-05T11:52:16.115Z,3.22
2023-04-05T11:54:46.683Z,2.30
2023-04-05T11:57:16.162Z,2.92
2023-04-05T11:59:43.660Z,3.15
2023-04-05T12:02:10.247Z,2.13
2023-04-05T12:04:37.711Z,2.33
2023-04-05T12:09:59.381Z,2.65
2023-04-05T12:12:26.114Z,2.80
2023-04-05T12:14:59.004Z,2.50
2023-04-05T12:17:49.333Z,3.10
2023-04-05T12:20:24.672Z,3.00
2023-04-05T12:22:56.380Z,2.90
2023-04-05T12:25:23.837Z,2.95
2023-04-05T12:30:22.027Z,2.70
2023-04-05T12:32:53.457Z,3.35
2023-04-05T12:35:34.701Z,2.53
2023-04-05T12:38:05.994Z,2.40
2023-04-05T12:40:34.837Z,2.72
2023-04-05T12:43:05.238Z,3.90
2023-04-05T12:45:40.234Z,3.40
2023-04-05T12:48:15.176Z,2.78
2023-04-05T12:50:47.277Z,2.58
2023-04-05T12:53:25.481Z,2.83
2023-04-05T12:55:53.888Z,2.75
2023-04-05T12:58:22.629Z,4.03
2023-04-05T13:00:49.199Z,5.25
2023-04-05T13:03:21.383Z,3.43
2023-04-05T13:05:51.003Z,3.60
2023-04-05T13:08:20.890Z,3.35
2023-04-05T13:10:48.650Z,3.03
2023-04-05T13:13:20.626Z,4.00
2023-04-05T13:15:48.096Z,3.30
2023-04-05T13:18:15.916Z,3.60
2023-04-05T13:20:42.837Z,4.23
2023-04-05T13:23:12.001Z,3.88
2023-04-05T13:25:39.722Z,8.55
2023-04-05T13:28:06.693Z,19.50
2023-04-05T13:30:33.392Z,4.65
2023-04-05T13:33:00.053Z,9.63
2023-04-05T13:35:27.195Z,8.13
2023-04-05T13:37:53.806Z,4.38
2023-04-05T13:40:20.446Z,3.77
2023-04-05T13:42:47.868Z,2.45
2023-04-05T13:47:41.266Z,3.30
2023-04-05T13:50:08.251Z,3.22
2023-04-05T13:52:34.915Z,3.15
2023-04-05T13:55:03.219Z,3.60
2023-04-05T13:57:30.845Z,3.72
2023-04-05T13:59:57.491Z,4.38
2023-04-05T14:02:26.106Z,3.35
2023-04-05T14:04:53.742Z,3.85
2023-04-05T14:07:21.708Z,3.45
2023-04-05T14:09:48.358Z,4.45
2023-04-05T14:12:15.097Z,3.63
2023-04-05T14:14:41.759Z,3.70
2023-04-05T14:17:08.442Z,3.60
2023-04-05T14:19:35.154Z,4.03
2023-04-05T14:22:02.108Z,3.67
2023-04-05T14:24:28.801Z,3.70
2023-04-05T14:26:58.554Z,3.70
2023-04-05T14:29:25.471Z,3.90
2023-04-05T14:31:52.113Z,4.22
2023-04-05T14:34:19.843Z,4.10
2023-04-05T14:36:46.542Z,5.82
2023-04-05T14:39:13.297Z,4.32
2023-04-05T14:41:40.132Z,5.15
2023-04-05T14:44:06.928Z,5.35
2023-04-05T14:46:33.608Z,5.22
2023-04-05T14:49:00.319Z,5.55
2023-04-05T14:51:27.439Z,4.90
2023-04-05T14:53:54.157Z,5.00
2023-04-05T14:56:21.237Z,5.45
2023-04-05T14:58:47.906Z,5.57
2023-04-05T15:01:14.700Z,6.25
2023-04-05T15:03:41.462Z,5.07
2023-04-05T15:06:08.313Z,5.90
2023-04-05T15:08:34.899Z,6.13
2023-04-05T15:11:01.647Z,5.90
2023-04-05T15:13:28.297Z,4.38
2023-04-05T15:15:54.840Z,4.82
2023-04-05T15:18:21.468Z,5.30
2023-04-05T15:20:48.136Z,5.60
2023-04-05T15:23:14.818Z,6.38
2023-04-05T15:25:41.410Z,6.00
2023-04-05T15:28:08.169Z,5.90
2023-04-05T15:30:36.196Z,5.85
2023-04-05T15:33:02.811Z,11.27
2023-04-05T15:35:29.572Z,6.20
2023-04-05T15:37:56.413Z,7.10
2023-04-05T15:40:22.999Z,4.43
2023-04-05T15:42:49.670Z,5.57
2023-04-05T15:45:16.465Z,6.25
2023-04-05T15:47:43.613Z,6.20
2023-04-05T15:50:10.290Z,6.20
2023-04-05T15:52:37.010Z,6.55
2023-04-05T15:55:04.383Z,6.75
2023-04-05T15:59:57.561Z,5.90
2023-04-05T16:02:25.347Z,6.18
2023-04-05T16:04:52.048Z,6.00
2023-04-05T16:07:18.843Z,6.07
2023-04-05T16:09:45.463Z,6.30
2023-04-05T16:12:12.159Z,7.03
2023-04-05T16:14:39.483Z,6.80
2023-04-05T16:17:06.361Z,11.73
2023-04-05T16:19:33.523Z,6.90
2023-04-05T16:22:00.917Z,7.38
2023-04-05T16:26:54.374Z,6.30
2023-04-05T16:29:21.151Z,6.38
2023-04-05T16:31:47.926Z,6.60
2023-04-05T16:34:14.727Z,6.82
2023-04-05T16:36:41.857Z,6.72
2023-04-05T16:39:08.889Z,7.03
2023-04-05T16:41:36.389Z,6.05
2023-04-05T16:44:03.818Z,6.72
2023-04-05T16:49:00.321Z,6.80
2023-04-05T16:51:28.035Z,6.43
2023-04-05T16:53:55.319Z,6.60
2023-04-05T16:56:22.809Z,6.72
2023-04-05T16:58:49.449Z,6.43
2023-04-05T17:01:16.306Z,6.53
2023-04-05T17:03:46.876Z,6.93
2023-04-05T17:06:16.513Z,12.63
2023-04-05T17:08:43.288Z,7.82
2023-04-05T17:11:10.430Z,5.55
2023-04-05T17:13:37.126Z,7.55
2023-04-05T17:16:04.012Z,7.30
2023-04-05T17:18:30.608Z,7.05
2023-04-05T17:20:57.236Z,7.00
2023-04-05T17:23:25.579Z,7.35
2023-04-05T17:25:52.230Z,7.28
2023-04-05T17:28:18.821Z,7.30
2023-04-05T17:30:45.631Z,7.70
2023-04-05T17:33:12.401Z,6.70
2023-04-05T17:35:39.135Z,6.88
2023-04-05T17:38:05.816Z,6.75
2023-04-05T17:40:32.571Z,7.18
2023-04-05T17:42:59.229Z,7.35
2023-04-05T17:45:25.827Z,6.68
2023-04-05T17:47:52.438Z,6.63
2023-04-05T17:50:19.113Z,7.30
2023-04-05T17:52:46.936Z,5.10
2023-04-05T17:55:13.572Z,7.05
2023-04-05T17:57:40.333Z,6.63
2023-04-05T18:00:07.626Z,6.82
2023-04-05T18:02:37.175Z,6.93
2023-04-05T18:05:04.917Z,7.38
2023-04-05T18:07:31.533Z,7.25
2023-04-05T18:09:58.931Z,7.22
2023-04-05T18:12:25.687Z,6.90
2023-04-05T18:14:52.378Z,7.25
2023-04-05T18:17:20.149Z,7.28
2023-04-05T18:19:49.344Z,7.85
2023-04-05T18:22:16.514Z,7.60
2023-04-05T18:24:43.437Z,7.18
2023-04-05T18:27:10.908Z,7.13
2023-04-05T18:32:08.440Z,6.97
2023-04-05T18:34:35.721Z,7.72
2023-04-05T18:37:02.463Z,6.88
2023-04-05T18:39:29.016Z,7.00
2023-04-05T18:41:55.660Z,7.73
2023-04-05T18:44:22.222Z,7.35
2023-04-05T18:46:49.764Z,7.60
2023-04-05T18:49:18.344Z,7.70
2023-04-05T18:51:46.056Z,7.85
2023-04-05T18:54:13.872Z,7.28
2023-04-05T18:56:41.106Z,7.60
2023-04-05T18:59:08.160Z,8.05
2023-04-05T19:04:01.674Z,8.07
2023-04-05T19:06:28.319Z,8.20
2023-04-05T19:08:54.935Z,7.65
2023-04-05T19:11:22.166Z,7.97
2023-04-05T19:13:48.860Z,7.93
2023-04-05T19:16:17.548Z,7.05
2023-04-05T19:18:44.679Z,7.72
2023-04-05T19:21:11.475Z,8.90
2023-04-05T19:23:38.845Z,8.38
2023-04-05T19:28:32.231Z,7.57
2023-04-05T19:30:58.810Z,7.35
2023-04-05T19:33:25.510Z,8.35
2023-04-05T19:35:52.352Z,6.07
2023-04-05T19:38:22.030Z,8.10
2023-04-05T19:40:49.063Z,8.20
2023-04-05T19:43:16.003Z,8.45
2023-04-05T19:45:43.031Z,7.97
2023-04-05T19:48:41.913Z,7.43
2023-04-05T19:51:10.358Z,7.90
2023-04-05T19:53:42.731Z,7.88
2023-04-05T19:56:32.291Z,7.93
2023-04-05T19:59:22.965Z,8.00
2023-04-05T20:01:49.746Z,8.43
2023-04-05T20:04:18.997Z,7.95
2023-04-05T20:06:54.303Z,8.55
2023-04-05T20:09:23.320Z,8.25
2023-04-05T20:11:56.026Z,8.52
2023-04-05T20:14:28.064Z,8.32
2023-04-05T20:16:56.068Z,8.32
2023-04-05T20:19:31.026Z,8.50
2023-04-05T20:22:02.080Z,8.48
2023-04-05T20:24:29.578Z,8.52
2023-04-05T20:26:57.039Z,8.35
2023-04-05T20:31:55.665Z,8.88
2023-04-05T20:34:31.039Z,9.02
2023-04-05T20:37:00.605Z,8.68
2023-04-05T20:39:29.039Z,8.80
2023-04-05T20:41:56.121Z,9.25
2023-04-05T20:44:23.721Z,8.45
2023-04-05T20:46:54.649Z,8.73
2023-04-05T20:49:22.460Z,8.95
2023-04-05T20:51:50.710Z,8.52
2023-04-05T20:54:19.670Z,8.23
2023-04-05T20:56:46.823Z,8.75
2023-04-05T20:59:14.785Z,9.02
2023-04-05T21:01:42.957Z,8.60
2023-04-05T21:04:10.267Z,8.98
2023-04-05T21:07:26.616Z,8.82
2023-04-05T21:12:19.849Z,8.18
2023-04-05T21:14:46.462Z,8.90
2023-04-05T21:17:13.120Z,9.00
2023-04-05T21:19:39.760Z,8.82
2023-04-05T21:22:06.410Z,8.90
2023-04-05T21:24:33.066Z,6.63
2023-04-05T21:26:59.650Z,9.50
2023-04-05T21:29:26.550Z,8.73
2023-04-05T21:31:53.286Z,9.02
2023-04-05T21:34:19.902Z,9.27
2023-04-05T21:36:46.718Z,9.38
2023-04-05T21:39:13.362Z,8.73
2023-04-05T21:41:39.978Z,8.85
2023-04-05T21:44:06.716Z,9.07
2023-04-05T21:46:33.428Z,8.98
2023-04-05T21:49:00.189Z,9.00
2023-04-05T21:51:26.879Z,8.82
2023-04-05T21:53:53.478Z,9.40
2023-04-05T21:56:20.136Z,9.43
2023-04-05T21:58:46.851Z,8.80
2023-04-05T22:01:13.836Z,9.18
2023-04-05T22:03:40.580Z,9.15
2023-04-05T22:06:07.277Z,9.10
2023-04-05T22:08:34.459Z,9.50
2023-04-05T22:13:27.929Z,8.48
2023-04-05T22:15:54.640Z,9.23
2023-04-05T22:18:21.341Z,8.77
2023-04-05T22:20:47.988Z,9.05
2023-04-05T22:23:14.707Z,9.38
2023-04-05T22:25:41.291Z,9.35
2023-04-05T22:28:08.578Z,7.15
2023-04-05T22:33:13.164Z,9.57
2023-04-05T22:35:39.896Z,8.98
2023-04-05T22:38:06.634Z,7.00
2023-04-05T22:40:33.341Z,9.32
2023-04-05T22:42:59.993Z,8.57
2023-04-05T22:45:26.829Z,7.10
2023-04-05T22:47:53.540Z,8.90
2023-04-05T22:50:21.026Z,9.23
2023-04-05T22:52:47.655Z,9.20
2023-04-05T22:55:14.409Z,9.10
2023-04-05T22:57:41.017Z,8.88
2023-04-05T23:00:08.174Z,9.55
2023-04-05T23:02:34.818Z,9.73
2023-04-05T23:05:01.595Z,8.80
2023-04-05T23:07:29.200Z,9.43
2023-04-05T23:09:55.881Z,9.15
2023-04-05T23:12:22.525Z,9.48
2023-04-05T23:14:50.905Z,8.77
2023-04-05T23:17:19.547Z,9.30
2023-04-05T23:19:46.201Z,8.80
2023-04-05T23:22:12.762Z,8.98
2023-04-05T23:24:39.410Z,9.10
2023-04-05T23:27:06.451Z,6.82
2023-04-05T23:29:33.025Z,9.35
2023-04-05T23:31:59.599Z,9.35
2023-04-05T23:34:26.226Z,6.53
2023-04-05T23:36:52.815Z,8.60
2023-04-05T23:39:19.476Z,8.80
2023-04-05T23:41:46.447Z,8.98
2023-04-05T23:44:12.974Z,8.77
2023-04-05T23:46:39.593Z,8.77
2023-04-05T23:49:06.478Z,8.90
2023-04-05T23:51:33.126Z,8.98
2023-04-05T23:53:59.674Z,6.40
2023-04-05T23:56:26.445Z,8.50
2023-04-05T23:58:53.132Z,8.55
